sensor_id;sensor_type;location;lat;lon;timestamp;temperature;humidity
20866;DHT22;10593;48.398;10.698;2023-09-12T04:57:20;21.40;52.40
20866;DHT22;10593;48.398;10.698;2023-09-12T05:32:04;21.30;51.50
20866;DHT22;10593;48.398;10.698;2023-09-12T05:44:46;21.20;52.30
20866;DHT22;10593;48.398;10.698;2023-09-12T05:52:31;21.20;52.60
20866;DHT22;10593;48.398;10.698;2023-09-12T05:57:31;21.20;52.70
20866;DHT22;10593;48.398;10.698;2023-09-12T06:12:57;21.50;53.80
20866;DHT22;10593;48.398;10.698;2023-09-12T06:30:44;22.50;55.50
20866;DHT22;10593;48.398;10.698;2023-09-12T06:33:10;22.70;56.00
20866;DHT22;10593;48.398;10.698;2023-09-12T06:40:40;23.50;55.20
20866;DHT22;10593;48.398;10.698;2023-09-12T06:45:43;24.20;54.90
20866;DHT22;10593;48.398;10.698;2023-09-12T06:53:20;25.00;53.60
20866;DHT22;10593;48.398;10.698;2023-09-12T06:55:46;25.30;52.80
20866;DHT22;10593;48.398;10.698;2023-09-12T06:58:12;25.50;52.20
20866;DHT22;10593;48.398;10.698;2023-09-12T07:00:37;25.70;51.70
20866;DHT22;10593;48.398;10.698;2023-09-12T07:03:03;25.80;51.70
20866;DHT22;10593;48.398;10.698;2023-09-12T07:08:05;25.90;51.00
20866;DHT22;10593;48.398;10.698;2023-09-12T07:36:25;25.80;51.00
20866;DHT22;10593;48.398;10.698;2023-09-12T07:38:51;25.80;51.00
20866;DHT22;10593;48.398;10.698;2023-09-12T10:34:41;27.00;52.70
20866;DHT22;10593;48.398;10.698;2023-09-12T12:13:06;28.20;46.60
20866;DHT22;10593;48.398;10.698;2023-09-12T12:15:36;28.20;46.80
20866;DHT22;10593;48.398;10.698;2023-09-12T12:18:01;28.20;46.80
20866;DHT22;10593;48.398;10.698;2023-09-12T12:20:28;28.20;46.50
20866;DHT22;10593;48.398;10.698;2023-09-12T12:22:55;28.20;46.40
20866;DHT22;10593;48.398;10.698;2023-09-12T12:25:21;28.20;46.20
20866;DHT22;10593;48.398;10.698;2023-09-12T12:27:48;28.30;46.20
20866;DHT22;10593;48.398;10.698;2023-09-12T12:30:17;28.30;45.80
20866;DHT22;10593;48.398;10.698;2023-09-12T12:32:45;28.30;45.70
20866;DHT22;10593;48.398;10.698;2023-09-12T12:35:19;28.40;46.30
20866;DHT22;10593;48.398;10.698;2023-09-12T12:37:48;28.40;46.50
20866;DHT22;10593;48.398;10.698;2023-09-12T12:40:16;28.50;47.00
20866;DHT22;10593;48.398;10.698;2023-09-12T12:42:45;28.50;46.60
20866;DHT22;10593;48.398;10.698;2023-09-12T12:45:19;28.50;46.30
20866;DHT22;10593;48.398;10.698;2023-09-12T12:47:51;28.50;45.80
20866;DHT22;10593;48.398;10.698;2023-09-12T12:50:22;28.60;45.30
20866;DHT22;10593;48.398;10.698;2023-09-12T12:52:48;28.60;45.00
20866;DHT22;10593;48.398;10.698;2023-09-12T12:55:15;28.60;45.30
20866;DHT22;10593;48.398;10.698;2023-09-12T12:57:43;28.70;45.20
20866;DHT22;10593;48.398;10.698;2023-09-12T13:00:11;28.70;44.60
20866;DHT22;10593;48.398;10.698;2023-09-12T13:02:42;28.70;44.10
20866;DHT22;10593;48.398;10.698;2023-09-12T13:05:28;28.70;44.10
20866;DHT22;10593;48.398;10.698;2023-09-12T13:08:02;28.70;44.10
20866;DHT22;10593;48.398;10.698;2023-09-12T13:10:28;28.80;44.20
20866;DHT22;10593;48.398;10.698;2023-09-12T13:12:53;28.80;44.00
20866;DHT22;10593;48.398;10.698;2023-09-12T13:15:20;28.80;43.60
20866;DHT22;10593;48.398;10.698;2023-09-12T13:17:46;28.80;43.50
20866;DHT22;10593;48.398;10.698;2023-09-12T13:20:12;28.80;43.60
20866;DHT22;10593;48.398;10.698;2023-09-12T13:22:38;28.80;43.70
20866;DHT22;10593;48.398;10.698;2023-09-12T13:25:06;28.90;43.40
20866;DHT22;10593;48.398;10.698;2023-09-12T13:27:33;28.80;42.80
20866;DHT22;10593;48.398;10.698;2023-09-12T13:29:58;28.80;42.70
20866;DHT22;10593;48.398;10.698;2023-09-12T13:32:24;28.80;43.00
20866;DHT22;10593;48.398;10.698;2023-09-12T13:34:53;28.90;42.40
20866;DHT22;10593;48.398;10.698;2023-09-12T13:37:20;28.90;41.80
20866;DHT22;10593;48.398;10.698;2023-09-12T13:39:46;28.90;41.30
20866;DHT22;10593;48.398;10.698;2023-09-12T13:42:14;28.90;41.80
20866;DHT22;10593;48.398;10.698;2023-09-12T13:44:44;28.90;41.70
20866;DHT22;10593;48.398;10.698;2023-09-12T13:47:10;28.90;41.70
20866;DHT22;10593;48.398;10.698;2023-09-12T13:49:36;28.90;41.80
20866;DHT22;10593;48.398;10.698;2023-09-12T13:52:03;28.90;42.40
20866;DHT22;10593;48.398;10.698;2023-09-12T13:54:29;29.00;42.30
20866;DHT22;10593;48.398;10.698;2023-09-12T13:56:57;28.90;41.80
20866;DHT22;10593;48.398;10.698;2023-09-12T13:59:22;28.90;41.80
20866;DHT22;10593;48.398;10.698;2023-09-12T14:01:48;29.00;42.40
20866;DHT22;10593;48.398;10.698;2023-09-12T14:04:14;29.00;42.50
20866;DHT22;10593;48.398;10.698;2023-09-12T14:06:42;29.10;41.90
20866;DHT22;10593;48.398;10.698;2023-09-12T14:09:08;29.10;41.60
20866;DHT22;10593;48.398;10.698;2023-09-12T14:11:33;29.10;41.60
20866;DHT22;10593;48.398;10.698;2023-09-12T14:13:59;29.10;41.50
20866;DHT22;10593;48.398;10.698;2023-09-12T14:16:25;29.10;41.90
20866;DHT22;10593;48.398;10.698;2023-09-12T14:18:51;29.10;41.20
20866;DHT22;10593;48.398;10.698;2023-09-12T14:21:17;29.10;41.50
20866;DHT22;10593;48.398;10.698;2023-09-12T14:23:44;29.00;41.30
20866;DHT22;10593;48.398;10.698;2023-09-12T14:26:10;29.10;41.10
20866;DHT22;10593;48.398;10.698;2023-09-12T14:28:35;29.00;41.10
20866;DHT22;10593;48.398;10.698;2023-09-12T14:31:01;29.10;41.40
20866;DHT22;10593;48.398;10.698;2023-09-12T14:33:29;29.10;41.40
20866;DHT22;10593;48.398;10.698;2023-09-12T14:35:55;29.10;41.80
20866;DHT22;10593;48.398;10.698;2023-09-12T14:38:21;29.10;42.00
20866;DHT22;10593;48.398;10.698;2023-09-12T14:40:46;29.20;41.20
20866;DHT22;10593;48.398;10.698;2023-09-12T14:43:12;29.10;41.20
20866;DHT22;10593;48.398;10.698;2023-09-12T14:45:38;29.20;41.20
20866;DHT22;10593;48.398;10.698;2023-09-12T14:48:04;29.20;41.00
20866;DHT22;10593;48.398;10.698;2023-09-12T14:50:31;29.20;40.60
20866;DHT22;10593;48.398;10.698;2023-09-12T14:52:56;29.20;40.40
20866;DHT22;10593;48.398;10.698;2023-09-12T14:55:22;29.20;41.10
20866;DHT22;10593;48.398;10.698;2023-09-12T14:57:48;29.30;41.00
20866;DHT22;10593;48.398;10.698;2023-09-12T15:00:16;29.30;41.40
20866;DHT22;10593;48.398;10.698;2023-09-12T15:02:41;29.30;41.50
20866;DHT22;10593;48.398;10.698;2023-09-12T15:05:08;29.30;41.20
20866;DHT22;10593;48.398;10.698;2023-09-12T15:07:34;29.30;40.90
20866;DHT22;10593;48.398;10.698;2023-09-12T15:10:02;29.30;41.80
20866;DHT22;10593;48.398;10.698;2023-09-12T15:12:29;29.30;42.40
20866;DHT22;10593;48.398;10.698;2023-09-12T15:14:55;29.20;41.50
20866;DHT22;10593;48.398;10.698;2023-09-12T15:17:21;29.20;42.00
20866;DHT22;10593;48.398;10.698;2023-09-12T15:19:47;29.20;43.10
20866;DHT22;10593;48.398;10.698;2023-09-12T15:22:13;29.20;44.00
20866;DHT22;10593;48.398;10.698;2023-09-12T15:24:40;29.20;44.80
20866;DHT22;10593;48.398;10.698;2023-09-12T15:27:06;29.20;46.40
20866;DHT22;10593;48.398;10.698;2023-09-12T15:29:32;29.20;47.20
20866;DHT22;10593;48.398;10.698;2023-09-12T15:31:59;29.20;47.20
20866;DHT22;10593;48.398;10.698;2023-09-12T15:34:26;29.10;46.80
20866;DHT22;10593;48.398;10.698;2023-09-12T15:37:09;29.10;46.40
20866;DHT22;10593;48.398;10.698;2023-09-12T15:39:39;29.10;45.90
20866;DHT22;10593;48.398;10.698;2023-09-12T15:42:05;29.10;45.60
20866;DHT22;10593;48.398;10.698;2023-09-12T15:44:32;29.00;45.30
20866;DHT22;10593;48.398;10.698;2023-09-12T15:46:58;29.00;45.50
20866;DHT22;10593;48.398;10.698;2023-09-12T15:49:28;28.90;45.40
20866;DHT22;10593;48.398;10.698;2023-09-12T15:51:55;28.90;45.40
20866;DHT22;10593;48.398;10.698;2023-09-12T15:54:21;28.80;45.70
20866;DHT22;10593;48.398;10.698;2023-09-12T15:56:47;28.80;45.90
20866;DHT22;10593;48.398;10.698;2023-09-12T15:59:12;28.80;46.10
20866;DHT22;10593;48.398;10.698;2023-09-12T16:01:38;28.70;46.70
20866;DHT22;10593;48.398;10.698;2023-09-12T16:04:04;28.70;47.70
20866;DHT22;10593;48.398;10.698;2023-09-12T16:06:30;28.70;48.30
20866;DHT22;10593;48.398;10.698;2023-09-12T16:08:56;28.70;48.90
20866;DHT22;10593;48.398;10.698;2023-09-12T16:11:22;28.60;49.10
20866;DHT22;10593;48.398;10.698;2023-09-12T16:13:47;28.60;49.40
20866;DHT22;10593;48.398;10.698;2023-09-12T16:16:15;28.60;49.40
20866;DHT22;10593;48.398;10.698;2023-09-12T16:18:41;28.50;49.20
20866;DHT22;10593;48.398;10.698;2023-09-12T16:21:10;28.60;49.20
20866;DHT22;10593;48.398;10.698;2023-09-12T16:23:36;28.50;49.40
20866;DHT22;10593;48.398;10.698;2023-09-12T16:26:02;28.50;49.30
20866;DHT22;10593;48.398;10.698;2023-09-12T16:28:28;28.40;49.40
20866;DHT22;10593;48.398;10.698;2023-09-12T16:30:54;28.40;49.40
20866;DHT22;10593;48.398;10.698;2023-09-12T16:33:20;28.40;49.50
20866;DHT22;10593;48.398;10.698;2023-09-12T16:35:46;28.30;49.30
20866;DHT22;10593;48.398;10.698;2023-09-12T16:38:12;28.30;49.40
20866;DHT22;10593;48.398;10.698;2023-09-12T16:40:39;28.30;49.10
20866;DHT22;10593;48.398;10.698;2023-09-12T16:43:05;28.30;49.50
20866;DHT22;10593;48.398;10.698;2023-09-12T16:45:32;28.20;49.50
20866;DHT22;10593;48.398;10.698;2023-09-12T16:47:58;28.20;49.20
20866;DHT22;10593;48.398;10.698;2023-09-12T16:50:25;28.20;49.20
20866;DHT22;10593;48.398;10.698;2023-09-12T16:52:51;28.20;49.40
20866;DHT22;10593;48.398;10.698;2023-09-12T16:55:18;28.10;49.60
20866;DHT22;10593;48.398;10.698;2023-09-12T16:57:44;28.10;50.00
20866;DHT22;10593;48.398;10.698;2023-09-12T17:00:11;28.10;50.20
20866;DHT22;10593;48.398;10.698;2023-09-12T17:02:40;28.00;50.80
20866;DHT22;10593;48.398;10.698;2023-09-12T17:05:06;28.00;51.40
20866;DHT22;10593;48.398;10.698;2023-09-12T17:07:32;28.00;51.40
20866;DHT22;10593;48.398;10.698;2023-09-12T17:09:58;27.90;51.70
20866;DHT22;10593;48.398;10.698;2023-09-12T17:12:25;27.90;51.90
20866;DHT22;10593;48.398;10.698;2023-09-12T17:14:52;27.90;52.10
20866;DHT22;10593;48.398;10.698;2023-09-12T17:17:18;27.90;52.30
20866;DHT22;10593;48.398;10.698;2023-09-12T17:19:44;27.80;52.40
20866;DHT22;10593;48.398;10.698;2023-09-12T17:22:10;27.80;52.60
20866;DHT22;10593;48.398;10.698;2023-09-12T17:24:36;27.80;52.70
20866;DHT22;10593;48.398;10.698;2023-09-12T17:27:02;27.80;52.70
20866;DHT22;10593;48.398;10.698;2023-09-12T17:29:29;27.80;52.20
20866;DHT22;10593;48.398;10.698;2023-09-12T17:31:55;27.70;52.20
20866;DHT22;10593;48.398;10.698;2023-09-12T17:34:46;27.70;52.70
20866;DHT22;10593;48.398;10.698;2023-09-12T17:37:34;27.70;52.60
20866;DHT22;10593;48.398;10.698;2023-09-12T17:40:00;27.70;52.40
20866;DHT22;10593;48.398;10.698;2023-09-12T17:42:28;27.70;52.20
20866;DHT22;10593;48.398;10.698;2023-09-12T17:44:56;27.70;51.30
20866;DHT22;10593;48.398;10.698;2023-09-12T17:47:22;27.60;50.90
20866;DHT22;10593;48.398;10.698;2023-09-12T17:49:48;27.70;50.70
20866;DHT22;10593;48.398;10.698;2023-09-12T17:52:15;27.60;50.50
20866;DHT22;10593;48.398;10.698;2023-09-12T17:54:41;27.60;50.50
20866;DHT22;10593;48.398;10.698;2023-09-12T17:57:09;27.60;50.50
20866;DHT22;10593;48.398;10.698;2023-09-12T17:59:37;27.50;50.70
20866;DHT22;10593;48.398;10.698;2023-09-12T18:02:05;27.60;50.90
20866;DHT22;10593;48.398;10.698;2023-09-12T18:04:33;27.50;51.30
20866;DHT22;10593;48.398;10.698;2023-09-12T18:07:00;27.50;51.70
20866;DHT22;10593;48.398;10.698;2023-09-12T18:09:27;27.50;52.10
20866;DHT22;10593;48.398;10.698;2023-09-12T18:11:53;27.50;52.30
20866;DHT22;10593;48.398;10.698;2023-09-12T18:14:20;27.50;52.20
20866;DHT22;10593;48.398;10.698;2023-09-12T18:16:46;27.40;52.00
20866;DHT22;10593;48.398;10.698;2023-09-12T18:19:13;27.40;52.20
20866;DHT22;10593;48.398;10.698;2023-09-12T18:21:39;27.40;52.30
20866;DHT22;10593;48.398;10.698;2023-09-12T18:24:05;27.40;52.80
20866;DHT22;10593;48.398;10.698;2023-09-12T18:26:31;27.30;52.80
20866;DHT22;10593;48.398;10.698;2023-09-12T18:28:57;27.30;53.00
20866;DHT22;10593;48.398;10.698;2023-09-12T18:31:23;27.30;53.20
20866;DHT22;10593;48.398;10.698;2023-09-12T18:33:48;27.30;53.10
20866;DHT22;10593;48.398;10.698;2023-09-12T18:36:14;27.30;53.10
20866;DHT22;10593;48.398;10.698;2023-09-12T18:38:42;27.20;53.20
20866;DHT22;10593;48.398;10.698;2023-09-12T18:41:09;27.20;53.30
20866;DHT22;10593;48.398;10.698;2023-09-12T18:43:36;27.20;53.20
20866;DHT22;10593;48.398;10.698;2023-09-12T18:46:02;27.20;53.30
20866;DHT22;10593;48.398;10.698;2023-09-12T18:48:29;27.20;53.50
20866;DHT22;10593;48.398;10.698;2023-09-12T20:03:13;26.30;53.20
20866;DHT22;10593;48.398;10.698;2023-09-12T20:05:40;26.30;53.60
20866;DHT22;10593;48.398;10.698;2023-09-12T20:08:06;26.20;53.80
20866;DHT22;10593;48.398;10.698;2023-09-12T20:10:36;26.30;54.00
20866;DHT22;10593;48.398;10.698;2023-09-12T20:13:01;26.20;54.20
20866;DHT22;10593;48.398;10.698;2023-09-12T20:15:27;26.20;54.20
20866;DHT22;10593;48.398;10.698;2023-09-12T20:18:07;26.20;54.20
20866;DHT22;10593;48.398;10.698;2023-09-12T20:20:35;26.20;54.00
20866;DHT22;10593;48.398;10.698;2023-09-12T20:23:03;26.20;53.80
20866;DHT22;10593;48.398;10.698;2023-09-12T20:25:30;26.10;53.80
20866;DHT22;10593;48.398;10.698;2023-09-12T20:27:57;26.10;53.80
20866;DHT22;10593;48.398;10.698;2023-09-12T20:30:23;26.10;53.70
20866;DHT22;10593;48.398;10.698;2023-09-12T20:32:50;26.10;53.70
20866;DHT22;10593;48.398;10.698;2023-09-12T20:35:28;26.10;53.90
20866;DHT22;10593;48.398;10.698;2023-09-12T20:37:56;26.00;53.80
20866;DHT22;10593;48.398;10.698;2023-09-12T20:40:23;26.00;53.80
20866;DHT22;10593;48.398;10.698;2023-09-12T20:42:50;26.00;53.90
20866;DHT22;10593;48.398;10.698;2023-09-12T20:45:17;25.90;54.00
20866;DHT22;10593;48.398;10.698;2023-09-12T20:47:45;25.90;54.10
20866;DHT22;10593;48.398;10.698;2023-09-12T20:50:11;25.90;54.10
20866;DHT22;10593;48.398;10.698;2023-09-12T20:52:40;25.80;54.20
20866;DHT22;10593;48.398;10.698;2023-09-12T20:55:07;25.80;54.10
20866;DHT22;10593;48.398;10.698;2023-09-12T20:57:34;25.80;54.10
20866;DHT22;10593;48.398;10.698;2023-09-12T21:00:00;25.70;54.20
20866;DHT22;10593;48.398;10.698;2023-09-12T21:02:25;25.70;54.40
20866;DHT22;10593;48.398;10.698;2023-09-12T21:04:51;25.70;54.50
20866;DHT22;10593;48.398;10.698;2023-09-12T21:07:17;25.70;54.60
20866;DHT22;10593;48.398;10.698;2023-09-12T22:19:51;25.30;54.10
20866;DHT22;10593;48.398;10.698;2023-09-12T22:22:18;25.20;53.90
20866;DHT22;10593;48.398;10.698;2023-09-12T22:24:44;25.20;53.80
20866;DHT22;10593;48.398;10.698;2023-09-12T22:27:10;25.10;53.80
20866;DHT22;10593;48.398;10.698;2023-09-12T22:29:37;25.10;54.00
20866;DHT22;10593;48.398;10.698;2023-09-12T22:32:02;25.10;54.10
20866;DHT22;10593;48.398;10.698;2023-09-12T22:34:28;25.00;54.30
20866;DHT22;10593;48.398;10.698;2023-09-12T22:36:56;25.00;54.40
20866;DHT22;10593;48.398;10.698;2023-09-12T22:39:22;25.00;54.40
20866;DHT22;10593;48.398;10.698;2023-09-12T22:41:48;24.90;54.50
20866;DHT22;10593;48.398;10.698;2023-09-12T22:44:14;24.90;54.50
20866;DHT22;10593;48.398;10.698;2023-09-12T22:46:39;24.90;54.50
20866;DHT22;10593;48.398;10.698;2023-09-12T22:49:05;24.90;54.60
20866;DHT22;10593;48.398;10.698;2023-09-12T22:51:31;24.90;54.60
20866;DHT22;10593;48.398;10.698;2023-09-12T22:53:57;24.80;54.60
20866;DHT22;10593;48.398;10.698;2023-09-12T22:56:22;24.80;55.20
20866;DHT22;10593;48.398;10.698;2023-09-12T22:58:48;24.80;54.60
20866;DHT22;10593;48.398;10.698;2023-09-12T23:01:14;24.80;54.50
20866;DHT22;10593;48.398;10.698;2023-09-12T23:03:42;24.80;54.50
20866;DHT22;10593;48.398;10.698;2023-09-12T23:06:08;24.70;54.40
20866;DHT22;10593;48.398;10.698;2023-09-12T23:08:34;24.70;54.50
20866;DHT22;10593;48.398;10.698;2023-09-12T23:10:59;24.70;54.50
20866;DHT22;10593;48.398;10.698;2023-09-12T23:13:25;24.70;54.50
20866;DHT22;10593;48.398;10.698;2023-09-12T23:15:52;24.70;54.50
20866;DHT22;10593;48.398;10.698;2023-09-12T23:18:18;24.70;54.50
20866;DHT22;10593;48.398;10.698;2023-09-12T23:20:46;24.60;54.50
20866;DHT22;10593;48.398;10.698;2023-09-12T23:23:14;24.60;54.50
20866;DHT22;10593;48.398;10.698;2023-09-12T23:25:40;24.60;54.60
20866;DHT22;10593;48.398;10.698;2023-09-12T23:28:11;24.60;54.60
20866;DHT22;10593;48.398;10.698;2023-09-12T23:51:21;24.40;54.70
20866;DHT22;10593;48.398;10.698;2023-09-12T23:53:46;24.40;54.60
20866;DHT22;10593;48.398;10.698;2023-09-12T23:56:12;24.40;54.40
20866;DHT22;10593;48.398;10.698;2023-09-12T23:58:38;24.40;54.30
